sensor_id;sensor_type;location;lat;lon;timestamp;temperature;humidity
40287;DHT22;25998;46.604;13.610;2023-01-28T00:00:45;0.10;99.90
40287;DHT22;25998;46.604;13.610;2023-01-28T00:03:56;-0.10;99.90
40287;DHT22;25998;46.604;13.610;2023-01-28T00:07:07;-0.20;99.90
40287;DHT22;25998;46.604;13.610;2023-01-28T00:10:18;-0.30;99.90
40287;DHT22;25998;46.604;13.610;2023-01-28T00:13:30;-0.40;99.90
40287;DHT22;25998;46.604;13.610;2023-01-28T00:16:41;-0.20;99.90
40287;DHT22;25998;46.604;13.610;2023-01-28T00:19:52;0.00;99.90
40287;DHT22;25998;46.604;13.610;2023-01-28T00:23:03;-0.20;99.90
40287;DHT22;25998;46.604;13.610;2023-01-28T00:26:14;-0.40;99.90
40287;DHT22;25998;46.604;13.610;2023-01-28T00:29:25;-0.50;99.90
40287;DHT22;25998;46.604;13.610;2023-01-28T00:32:36;-0.60;99.90
40287;DHT22;25998;46.604;13.610;2023-01-28T00:35:55;-0.60;99.90
40287;DHT22;25998;46.604;13.610;2023-01-28T00:39:09;-0.50;99.90
40287;DHT22;25998;46.604;13.610;2023-01-28T00:42:21;-0.30;99.90
40287;DHT22;25998;46.604;13.610;2023-01-28T00:45:31;-0.10;99.90
40287;DHT22;25998;46.604;13.610;2023-01-28T00:48:43;0.00;99.90
40287;DHT22;25998;46.604;13.610;2023-01-28T00:51:54;0.10;99.90
40287;DHT22;25998;46.604;13.610;2023-01-28T00:55:05;0.20;99.90
40287;DHT22;25998;46.604;13.610;2023-01-28T00:58:16;0.10;99.90
40287;DHT22;25998;46.604;13.610;2023-01-28T01:01:27;-0.10;99.90
40287;DHT22;25998;46.604;13.610;2023-01-28T01:04:39;-0.30;99.90
40287;DHT22;25998;46.604;13.610;2023-01-28T01:07:50;-0.30;99.90
40287;DHT22;25998;46.604;13.610;2023-01-28T01:11:01;-0.20;99.90
40287;DHT22;25998;46.604;13.610;2023-01-28T01:14:12;-0.30;99.90
40287;DHT22;25998;46.604;13.610;2023-01-28T01:17:23;-0.40;99.90
40287;DHT22;25998;46.604;13.610;2023-01-28T01:20:34;-0.40;99.90
40287;DHT22;25998;46.604;13.610;2023-01-28T01:23:50;-0.40;99.90
40287;DHT22;25998;46.604;13.610;2023-01-28T01:27:01;-0.10;99.90
40287;DHT22;25998;46.604;13.610;2023-01-28T01:30:13;-0.10;99.90
40287;DHT22;25998;46.604;13.610;2023-01-28T01:33:24;-0.20;99.90
40287;DHT22;25998;46.604;13.610;2023-01-28T01:36:35;-0.20;99.90
40287;DHT22;25998;46.604;13.610;2023-01-28T01:39:45;-0.30;99.90
40287;DHT22;25998;46.604;13.610;2023-01-28T01:42:57;-0.50;99.90
40287;DHT22;25998;46.604;13.610;2023-01-28T01:46:07;-0.60;99.90
40287;DHT22;25998;46.604;13.610;2023-01-28T01:49:23;-0.70;99.90
40287;DHT22;25998;46.604;13.610;2023-01-28T01:52:35;-0.70;99.90
40287;DHT22;25998;46.604;13.610;2023-01-28T01:55:49;-0.90;99.90
40287;DHT22;25998;46.604;13.610;2023-01-28T01:59:03;-0.90;99.90
40287;DHT22;25998;46.604;13.610;2023-01-28T02:02:14;-0.80;99.90
40287;DHT22;25998;46.604;13.610;2023-01-28T02:05:25;-0.80;99.90
40287;DHT22;25998;46.604;13.610;2023-01-28T02:08:36;-0.70;99.90
40287;DHT22;25998;46.604;13.610;2023-01-28T02:11:47;-0.70;99.90
40287;DHT22;25998;46.604;13.610;2023-01-28T02:15:04;-0.50;99.90
40287;DHT22;25998;46.604;13.610;2023-01-28T02:18:15;-0.50;99.90
40287;DHT22;25998;46.604;13.610;2023-01-28T02:21:35;-0.70;99.90
40287;DHT22;25998;46.604;13.610;2023-01-28T02:32:02;-0.80;99.90
40287;DHT22;25998;46.604;13.610;2023-01-28T02:35:28;-0.90;99.90
40287;DHT22;25998;46.604;13.610;2023-01-28T02:38:47;-0.90;99.90
40287;DHT22;25998;46.604;13.610;2023-01-28T02:42:05;-0.80;99.90
40287;DHT22;25998;46.604;13.610;2023-01-28T02:45:25;-0.70;99.90
40287;DHT22;25998;46.604;13.610;2023-01-28T02:48:56;-0.50;99.90
40287;DHT22;25998;46.604;13.610;2023-01-28T02:56:35;-0.40;99.90
40287;DHT22;25998;46.604;13.610;2023-01-28T03:00:17;-0.50;99.90
40287;DHT22;25998;46.604;13.610;2023-01-28T03:03:43;-0.50;99.90
40287;DHT22;25998;46.604;13.610;2023-01-28T03:06:59;-0.40;99.90
40287;DHT22;25998;46.604;13.610;2023-01-28T03:10:17;-0.40;99.90
40287;DHT22;25998;46.604;13.610;2023-01-28T03:13:30;-0.50;99.90
40287;DHT22;25998;46.604;13.610;2023-01-28T03:17:00;-0.60;99.90
40287;DHT22;25998;46.604;13.610;2023-01-28T03:20:56;-0.70;99.90
40287;DHT22;25998;46.604;13.610;2023-01-28T03:24:36;-0.60;99.90
40287;DHT22;25998;46.604;13.610;2023-01-28T03:28:11;-0.60;99.90
40287;DHT22;25998;46.604;13.610;2023-01-28T03:31:43;-0.60;99.90
40287;DHT22;25998;46.604;13.610;2023-01-28T03:35:15;-0.50;99.90
40287;DHT22;25998;46.604;13.610;2023-01-28T03:38:46;-0.50;99.90
40287;DHT22;25998;46.604;13.610;2023-01-28T03:42:09;-0.70;99.90
40287;DHT22;25998;46.604;13.610;2023-01-28T03:45:20;-0.70;99.90
40287;DHT22;25998;46.604;13.610;2023-01-28T03:48:31;-0.80;99.90
40287;DHT22;25998;46.604;13.610;2023-01-28T03:51:43;-0.70;99.90
40287;DHT22;25998;46.604;13.610;2023-01-28T03:54:55;-0.40;99.90
40287;DHT22;25998;46.604;13.610;2023-01-28T03:58:06;-0.30;99.90
40287;DHT22;25998;46.604;13.610;2023-01-28T04:01:18;-0.60;99.90
40287;DHT22;25998;46.604;13.610;2023-01-28T04:04:29;-0.70;99.90
40287;DHT22;25998;46.604;13.610;2023-01-28T04:07:42;-0.80;99.90
40287;DHT22;25998;46.604;13.610;2023-01-28T04:10:53;-1.00;99.90
40287;DHT22;25998;46.604;13.610;2023-01-28T04:14:04;-1.10;99.90
40287;DHT22;25998;46.604;13.610;2023-01-28T04:17:15;-1.20;99.90
40287;DHT22;25998;46.604;13.610;2023-01-28T04:20:26;-0.80;99.90
40287;DHT22;25998;46.604;13.610;2023-01-28T04:23:36;-0.70;99.90
40287;DHT22;25998;46.604;13.610;2023-01-28T04:26:47;-0.60;99.90
40287;DHT22;25998;46.604;13.610;2023-01-28T04:29:58;-0.80;99.90
40287;DHT22;25998;46.604;13.610;2023-01-28T04:33:09;-0.90;99.90
40287;DHT22;25998;46.604;13.610;2023-01-28T04:36:20;-0.80;99.90
40287;DHT22;25998;46.604;13.610;2023-01-28T04:39:31;-0.80;99.90
40287;DHT22;25998;46.604;13.610;2023-01-28T04:42:41;-0.70;99.90
40287;DHT22;25998;46.604;13.610;2023-01-28T04:45:52;-0.70;99.90
40287;DHT22;25998;46.604;13.610;2023-01-28T04:49:03;-0.60;99.90
40287;DHT22;25998;46.604;13.610;2023-01-28T04:52:14;-0.70;99.90
40287;DHT22;25998;46.604;13.610;2023-01-28T04:55:25;-0.70;99.90
40287;DHT22;25998;46.604;13.610;2023-01-28T04:58:36;-0.70;99.90
40287;DHT22;25998;46.604;13.610;2023-01-28T05:01:47;-0.80;99.90
40287;DHT22;25998;46.604;13.610;2023-01-28T05:04:57;-1.00;99.90
40287;DHT22;25998;46.604;13.610;2023-01-28T05:08:08;-1.10;99.90
40287;DHT22;25998;46.604;13.610;2023-01-28T05:11:19;-1.20;99.90
40287;DHT22;25998;46.604;13.610;2023-01-28T05:14:30;-1.30;99.90
40287;DHT22;25998;46.604;13.610;2023-01-28T05:17:41;-1.40;99.90
40287;DHT22;25998;46.604;13.610;2023-01-28T05:20:52;-1.50;99.90
40287;DHT22;25998;46.604;13.610;2023-01-28T05:24:03;-1.20;99.90
40287;DHT22;25998;46.604;13.610;2023-01-28T05:27:14;-1.00;99.90
40287;DHT22;25998;46.604;13.610;2023-01-28T05:30:25;-0.90;99.90
40287;DHT22;25998;46.604;13.610;2023-01-28T05:33:39;-0.90;99.90
40287;DHT22;25998;46.604;13.610;2023-01-28T05:36:50;-1.00;99.90
40287;DHT22;25998;46.604;13.610;2023-01-28T05:40:00;-1.00;99.90
40287;DHT22;25998;46.604;13.610;2023-01-28T05:43:11;-0.80;99.90
40287;DHT22;25998;46.604;13.610;2023-01-28T05:46:22;-0.80;99.90
40287;DHT22;25998;46.604;13.610;2023-01-28T05:49:34;-0.80;99.90
40287;DHT22;25998;46.604;13.610;2023-01-28T05:52:45;-1.00;99.90
40287;DHT22;25998;46.604;13.610;2023-01-28T05:55:56;-1.00;99.90
40287;DHT22;25998;46.604;13.610;2023-01-28T05:59:09;-1.30;99.90
40287;DHT22;25998;46.604;13.610;2023-01-28T06:02:20;-1.40;99.90
40287;DHT22;25998;46.604;13.610;2023-01-28T06:05:31;-1.50;99.90
40287;DHT22;25998;46.604;13.610;2023-01-28T06:08:42;-1.40;99.90
40287;DHT22;25998;46.604;13.610;2023-01-28T06:11:53;-1.40;99.90
40287;DHT22;25998;46.604;13.610;2023-01-28T06:15:04;-1.30;99.90
40287;DHT22;25998;46.604;13.610;2023-01-28T06:18:15;-1.20;99.90
40287;DHT22;25998;46.604;13.610;2023-01-28T06:21:26;-1.20;99.90
40287;DHT22;25998;46.604;13.610;2023-01-28T06:24:37;-1.20;99.90
40287;DHT22;25998;46.604;13.610;2023-01-28T06:27:47;-1.30;99.90
40287;DHT22;25998;46.604;13.610;2023-01-28T06:30:58;-1.00;99.90
40287;DHT22;25998;46.604;13.610;2023-01-28T06:34:09;-0.80;99.90
40287;DHT22;25998;46.604;13.610;2023-01-28T06:37:20;-1.00;99.90
40287;DHT22;25998;46.604;13.610;2023-01-28T06:40:31;-0.90;99.90
40287;DHT22;25998;46.604;13.610;2023-01-28T06:43:42;-0.90;99.90
40287;DHT22;25998;46.604;13.610;2023-01-28T06:46:52;-1.00;99.90
40287;DHT22;25998;46.604;13.610;2023-01-28T06:50:04;-1.10;99.90
40287;DHT22;25998;46.604;13.610;2023-01-28T06:53:15;-1.30;99.90
40287;DHT22;25998;46.604;13.610;2023-01-28T06:56:27;-1.40;99.90
40287;DHT22;25998;46.604;13.610;2023-01-28T06:59:38;-1.30;99.90
40287;DHT22;25998;46.604;13.610;2023-01-28T07:02:48;-1.40;99.90
40287;DHT22;25998;46.604;13.610;2023-01-28T07:05:59;-1.50;99.90
40287;DHT22;25998;46.604;13.610;2023-01-28T07:09:10;-1.50;99.90
40287;DHT22;25998;46.604;13.610;2023-01-28T07:12:21;-1.20;99.90
40287;DHT22;25998;46.604;13.610;2023-01-28T07:15:32;-1.00;99.90
40287;DHT22;25998;46.604;13.610;2023-01-28T07:18:43;-1.00;99.90
40287;DHT22;25998;46.604;13.610;2023-01-28T07:21:53;-0.90;99.90
40287;DHT22;25998;46.604;13.610;2023-01-28T07:25:09;-0.80;99.90
40287;DHT22;25998;46.604;13.610;2023-01-28T07:28:20;-0.80;99.90
40287;DHT22;25998;46.604;13.610;2023-01-28T07:31:31;-0.90;99.90
40287;DHT22;25998;46.604;13.610;2023-01-28T07:34:42;-0.80;99.90
40287;DHT22;25998;46.604;13.610;2023-01-28T07:37:54;-0.70;99.90
40287;DHT22;25998;46.604;13.610;2023-01-28T07:41:05;-0.70;99.90
40287;DHT22;25998;46.604;13.610;2023-01-28T07:44:16;-0.60;99.90
40287;DHT22;25998;46.604;13.610;2023-01-28T07:47:27;-0.60;99.90
40287;DHT22;25998;46.604;13.610;2023-01-28T07:50:38;-0.60;99.90
40287;DHT22;25998;46.604;13.610;2023-01-28T07:53:49;-0.60;99.90
40287;DHT22;25998;46.604;13.610;2023-01-28T07:57:00;-0.60;99.90
40287;DHT22;25998;46.604;13.610;2023-01-28T08:00:12;-0.60;99.90
40287;DHT22;25998;46.604;13.610;2023-01-28T08:03:23;-0.70;99.90
40287;DHT22;25998;46.604;13.610;2023-01-28T08:06:34;-0.80;99.90
40287;DHT22;25998;46.604;13.610;2023-01-28T08:09:47;-1.00;99.90
40287;DHT22;25998;46.604;13.610;2023-01-28T08:12:58;-0.90;99.90
40287;DHT22;25998;46.604;13.610;2023-01-28T08:16:09;-0.80;99.90
40287;DHT22;25998;46.604;13.610;2023-01-28T08:19:19;-0.50;99.90
40287;DHT22;25998;46.604;13.610;2023-01-28T08:22:31;-0.30;99.90
40287;DHT22;25998;46.604;13.610;2023-01-28T08:25:42;-0.30;99.90
40287;DHT22;25998;46.604;13.610;2023-01-28T08:28:53;-0.30;99.90
40287;DHT22;25998;46.604;13.610;2023-01-28T08:32:04;-0.20;99.90
40287;DHT22;25998;46.604;13.610;2023-01-28T08:35:15;-0.10;99.90
40287;DHT22;25998;46.604;13.610;2023-01-28T08:38:25;-0.10;99.90
40287;DHT22;25998;46.604;13.610;2023-01-28T08:41:36;-0.10;99.90
40287;DHT22;25998;46.604;13.610;2023-01-28T08:44:47;-0.20;99.90
40287;DHT22;25998;46.604;13.610;2023-01-28T08:48:00;-0.20;99.90
40287;DHT22;25998;46.604;13.610;2023-01-28T08:51:11;-0.40;99.90
40287;DHT22;25998;46.604;13.610;2023-01-28T08:54:22;-0.70;99.90
40287;DHT22;25998;46.604;13.610;2023-01-28T08:57:33;-0.70;99.90
40287;DHT22;25998;46.604;13.610;2023-01-28T09:00:46;-0.60;99.90
40287;DHT22;25998;46.604;13.610;2023-01-28T09:03:57;-0.50;99.90
40287;DHT22;25998;46.604;13.610;2023-01-28T09:07:08;-0.50;99.90
40287;DHT22;25998;46.604;13.610;2023-01-28T09:10:20;-0.40;99.90
40287;DHT22;25998;46.604;13.610;2023-01-28T09:13:31;-0.30;99.90
40287;DHT22;25998;46.604;13.610;2023-01-28T09:16:42;-0.30;99.90
40287;DHT22;25998;46.604;13.610;2023-01-28T09:19:53;-0.30;99.90
40287;DHT22;25998;46.604;13.610;2023-01-28T09:23:03;-0.40;99.90
40287;DHT22;25998;46.604;13.610;2023-01-28T09:26:14;-0.30;99.90
40287;DHT22;25998;46.604;13.610;2023-01-28T09:29:26;-0.20;99.90
40287;DHT22;25998;46.604;13.610;2023-01-28T09:32:36;-0.30;99.90
40287;DHT22;25998;46.604;13.610;2023-01-28T09:35:47;-0.70;99.90
40287;DHT22;25998;46.604;13.610;2023-01-28T09:38:58;-0.70;99.90
40287;DHT22;25998;46.604;13.610;2023-01-28T09:46:01;-0.40;99.90
40287;DHT22;25998;46.604;13.610;2023-01-28T09:49:44;-0.40;99.90
40287;DHT22;25998;46.604;13.610;2023-01-28T09:52:56;-0.40;99.90
40287;DHT22;25998;46.604;13.610;2023-01-28T09:56:17;-0.40;99.90
40287;DHT22;25998;46.604;13.610;2023-01-28T09:59:33;-0.40;99.90
40287;DHT22;25998;46.604;13.610;2023-01-28T10:13:39;0.20;99.90
40287;DHT22;25998;46.604;13.610;2023-01-28T10:17:09;0.30;99.90
40287;DHT22;25998;46.604;13.610;2023-01-28T10:20:27;0.30;99.90
40287;DHT22;25998;46.604;13.610;2023-01-28T10:23:48;0.40;99.90
40287;DHT22;25998;46.604;13.610;2023-01-28T10:27:02;0.20;99.90
40287;DHT22;25998;46.604;13.610;2023-01-28T10:30:25;0.20;99.90
40287;DHT22;25998;46.604;13.610;2023-01-28T10:33:36;0.40;99.90
40287;DHT22;25998;46.604;13.610;2023-01-28T10:36:50;0.70;99.90
40287;DHT22;25998;46.604;13.610;2023-01-28T10:40:01;0.80;99.90
40287;DHT22;25998;46.604;13.610;2023-01-28T10:43:15;0.70;99.90
40287;DHT22;25998;46.604;13.610;2023-01-28T10:46:31;0.70;99.90
40287;DHT22;25998;46.604;13.610;2023-01-28T10:49:48;0.70;99.90
40287;DHT22;25998;46.604;13.610;2023-01-28T10:53:04;0.90;99.90
40287;DHT22;25998;46.604;13.610;2023-01-28T10:56:22;1.10;99.90
40287;DHT22;25998;46.604;13.610;2023-01-28T10:59:35;1.30;99.90
40287;DHT22;25998;46.604;13.610;2023-01-28T11:02:51;1.60;99.90
40287;DHT22;25998;46.604;13.610;2023-01-28T11:06:03;1.80;99.90
40287;DHT22;25998;46.604;13.610;2023-01-28T11:09:25;1.50;99.90
40287;DHT22;25998;46.604;13.610;2023-01-28T11:12:36;1.00;99.90
40287;DHT22;25998;46.604;13.610;2023-01-28T11:15:53;0.90;99.90
40287;DHT22;25998;46.604;13.610;2023-01-28T11:19:05;0.80;99.90
40287;DHT22;25998;46.604;13.610;2023-01-28T11:22:38;0.90;99.90
40287;DHT22;25998;46.604;13.610;2023-01-28T11:29:42;1.00;99.90
40287;DHT22;25998;46.604;13.610;2023-01-28T11:36:30;1.20;99.90
40287;DHT22;25998;46.604;13.610;2023-01-28T11:39:41;1.40;99.90
40287;DHT22;25998;46.604;13.610;2023-01-28T11:42:54;1.50;99.90
40287;DHT22;25998;46.604;13.610;2023-01-28T11:53:14;1.60;99.90
40287;DHT22;25998;46.604;13.610;2023-01-28T12:07:04;2.00;99.90
40287;DHT22;25998;46.604;13.610;2023-01-28T17:59:39;-1.80;99.90
40287;DHT22;25998;46.604;13.610;2023-01-28T18:02:50;-1.70;99.90
40287;DHT22;25998;46.604;13.610;2023-01-28T18:06:01;-1.60;99.90
40287;DHT22;25998;46.604;13.610;2023-01-28T18:09:13;-1.40;99.90
40287;DHT22;25998;46.604;13.610;2023-01-28T18:12:24;-1.20;99.90
40287;DHT22;25998;46.604;13.610;2023-01-28T18:15:35;-1.00;99.90
40287;DHT22;25998;46.604;13.610;2023-01-28T18:18:48;-0.90;99.90
40287;DHT22;25998;46.604;13.610;2023-01-28T18:22:00;-0.70;99.90
40287;DHT22;25998;46.604;13.610;2023-01-28T18:25:15;-0.40;99.90
40287;DHT22;25998;46.604;13.610;2023-01-28T18:28:27;-0.50;99.90
40287;DHT22;25998;46.604;13.610;2023-01-28T18:31:37;-0.50;99.90
40287;DHT22;25998;46.604;13.610;2023-01-28T18:34:48;-0.40;99.90
40287;DHT22;25998;46.604;13.610;2023-01-28T18:37:59;-0.40;99.90
40287;DHT22;25998;46.604;13.610;2023-01-28T18:41:12;-0.30;99.90
40287;DHT22;25998;46.604;13.610;2023-01-28T18:44:25;-0.30;99.90
40287;DHT22;25998;46.604;13.610;2023-01-28T18:47:36;-0.20;99.90
40287;DHT22;25998;46.604;13.610;2023-01-28T18:50:51;-0.30;99.90
40287;DHT22;25998;46.604;13.610;2023-01-28T18:54:04;-0.30;99.90
40287;DHT22;25998;46.604;13.610;2023-01-28T18:57:15;-0.30;99.90
40287;DHT22;25998;46.604;13.610;2023-01-28T19:00:26;-0.40;99.90
40287;DHT22;25998;46.604;13.610;2023-01-28T19:03:37;-0.30;99.90
40287;DHT22;25998;46.604;13.610;2023-01-28T19:06:48;-0.40;99.90
40287;DHT22;25998;46.604;13.610;2023-01-28T19:09:59;-0.40;99.90
40287;DHT22;25998;46.604;13.610;2023-01-28T19:13:09;-0.30;99.90
40287;DHT22;25998;46.604;13.610;2023-01-28T19:16:21;-0.20;99.90
40287;DHT22;25998;46.604;13.610;2023-01-28T19:19:31;-0.20;99.90
40287;DHT22;25998;46.604;13.610;2023-01-28T19:22:42;-0.30;99.90
40287;DHT22;25998;46.604;13.610;2023-01-28T19:25:56;-0.10;99.90
40287;DHT22;25998;46.604;13.610;2023-01-28T19:29:08;0.00;99.90
40287;DHT22;25998;46.604;13.610;2023-01-28T19:32:19;0.10;99.90
40287;DHT22;25998;46.604;13.610;2023-01-28T19:35:33;0.10;99.90
40287;DHT22;25998;46.604;13.610;2023-01-28T19:38:44;0.20;99.90
40287;DHT22;25998;46.604;13.610;2023-01-28T19:41:54;0.30;99.90
40287;DHT22;25998;46.604;13.610;2023-01-28T19:45:06;0.40;99.90
40287;DHT22;25998;46.604;13.610;2023-01-28T19:48:17;0.60;99.90
40287;DHT22;25998;46.604;13.610;2023-01-28T19:51:28;0.40;99.90
40287;DHT22;25998;46.604;13.610;2023-01-28T19:54:39;0.10;99.90
40287;DHT22;25998;46.604;13.610;2023-01-28T19:57:49;0.00;99.90
40287;DHT22;25998;46.604;13.610;2023-01-28T20:04:15;0.00;99.90
40287;DHT22;25998;46.604;13.610;2023-01-28T20:07:26;0.00;99.90
40287;DHT22;25998;46.604;13.610;2023-01-28T20:10:37;-0.10;99.90
40287;DHT22;25998;46.604;13.610;2023-01-28T20:13:49;0.10;99.90
40287;DHT22;25998;46.604;13.610;2023-01-28T20:17:01;0.30;99.90
40287;DHT22;25998;46.604;13.610;2023-01-28T20:20:11;0.20;99.90
40287;DHT22;25998;46.604;13.610;2023-01-28T20:23:22;0.00;99.90
40287;DHT22;25998;46.604;13.610;2023-01-28T20:26:35;-0.10;99.90
40287;DHT22;25998;46.604;13.610;2023-01-28T20:29:46;-0.10;99.90
40287;DHT22;25998;46.604;13.610;2023-01-28T20:32:57;-0.10;99.90
40287;DHT22;25998;46.604;13.610;2023-01-28T20:36:10;-0.10;99.90
40287;DHT22;25998;46.604;13.610;2023-01-28T20:39:21;-0.10;99.90
40287;DHT22;25998;46.604;13.610;2023-01-28T20:42:33;-0.10;99.90
40287;DHT22;25998;46.604;13.610;2023-01-28T20:45:43;-0.20;99.90
40287;DHT22;25998;46.604;13.610;2023-01-28T20:48:56;-0.20;99.90
40287;DHT22;25998;46.604;13.610;2023-01-28T20:52:07;-0.30;99.90
40287;DHT22;25998;46.604;13.610;2023-01-28T20:55:17;-0.30;99.90
40287;DHT22;25998;46.604;13.610;2023-01-28T20:58:29;-0.30;99.90
40287;DHT22;25998;46.604;13.610;2023-01-28T21:01:40;-0.30;99.90
40287;DHT22;25998;46.604;13.610;2023-01-28T21:04:51;-0.30;99.90
40287;DHT22;25998;46.604;13.610;2023-01-28T21:08:02;-0.30;99.90
40287;DHT22;25998;46.604;13.610;2023-01-28T21:11:13;-0.30;99.90
40287;DHT22;25998;46.604;13.610;2023-01-28T21:14:24;-0.40;99.90
40287;DHT22;25998;46.604;13.610;2023-01-28T21:17:35;-0.40;99.90
40287;DHT22;25998;46.604;13.610;2023-01-28T21:20:46;-0.40;99.90
40287;DHT22;25998;46.604;13.610;2023-01-28T21:24:00;-0.40;99.90
40287;DHT22;25998;46.604;13.610;2023-01-28T21:27:11;-0.30;99.90
40287;DHT22;25998;46.604;13.610;2023-01-28T21:30:21;-0.40;99.90
40287;DHT22;25998;46.604;13.610;2023-01-28T21:33:32;-0.30;99.90
40287;DHT22;25998;46.604;13.610;2023-01-28T21:36:43;-0.20;99.90
40287;DHT22;25998;46.604;13.610;2023-01-28T21:39:54;-0.10;99.90
40287;DHT22;25998;46.604;13.610;2023-01-28T21:43:05;0.00;99.90
40287;DHT22;25998;46.604;13.610;2023-01-28T21:46:16;0.00;99.90
40287;DHT22;25998;46.604;13.610;2023-01-28T21:49:27;0.10;99.90
40287;DHT22;25998;46.604;13.610;2023-01-28T21:52:38;0.00;99.90
40287;DHT22;25998;46.604;13.610;2023-01-28T21:55:49;0.00;99.90
40287;DHT22;25998;46.604;13.610;2023-01-28T21:58:59;0.00;99.90
40287;DHT22;25998;46.604;13.610;2023-01-28T22:02:29;0.00;99.90
40287;DHT22;25998;46.604;13.610;2023-01-28T22:05:39;-0.10;99.90
40287;DHT22;25998;46.604;13.610;2023-01-28T22:08:51;-0.10;99.90
40287;DHT22;25998;46.604;13.610;2023-01-28T22:12:04;-0.20;99.90
40287;DHT22;25998;46.604;13.610;2023-01-28T22:15:17;-0.30;99.90
40287;DHT22;25998;46.604;13.610;2023-01-28T22:18:28;-0.40;99.90
40287;DHT22;25998;46.604;13.610;2023-01-28T22:21:40;-0.40;99.90
40287;DHT22;25998;46.604;13.610;2023-01-28T22:24:52;-0.30;99.90
40287;DHT22;25998;46.604;13.610;2023-01-28T22:28:03;-0.20;99.90
40287;DHT22;25998;46.604;13.610;2023-01-28T22:31:15;-0.10;99.90
40287;DHT22;25998;46.604;13.610;2023-01-28T22:34:26;0.00;99.90
40287;DHT22;25998;46.604;13.610;2023-01-28T22:37:36;0.00;99.90
40287;DHT22;25998;46.604;13.610;2023-01-28T22:40:47;0.00;99.90
40287;DHT22;25998;46.604;13.610;2023-01-28T22:43:58;-0.10;99.90
40287;DHT22;25998;46.604;13.610;2023-01-28T22:47:13;-0.10;99.90
40287;DHT22;25998;46.604;13.610;2023-01-28T22:50:24;-0.20;99.90
40287;DHT22;25998;46.604;13.610;2023-01-28T22:53:34;-0.10;99.90
40287;DHT22;25998;46.604;13.610;2023-01-28T22:56:45;-0.10;99.90
40287;DHT22;25998;46.604;13.610;2023-01-28T22:59:56;0.10;99.90
40287;DHT22;25998;46.604;13.610;2023-01-28T23:03:07;0.20;99.90
40287;DHT22;25998;46.604;13.610;2023-01-28T23:06:20;0.20;99.90
40287;DHT22;25998;46.604;13.610;2023-01-28T23:09:32;0.30;99.90
40287;DHT22;25998;46.604;13.610;2023-01-28T23:12:42;0.30;99.90
40287;DHT22;25998;46.604;13.610;2023-01-28T23:15:55;0.40;99.90
40287;DHT22;25998;46.604;13.610;2023-01-28T23:19:25;0.50;99.90
40287;DHT22;25998;46.604;13.610;2023-01-28T23:22:54;0.50;99.90
40287;DHT22;25998;46.604;13.610;2023-01-28T23:26:23;0.30;99.90
40287;DHT22;25998;46.604;13.610;2023-01-28T23:29:34;0.10;99.90
40287;DHT22;25998;46.604;13.610;2023-01-28T23:32:47;0.10;99.90
40287;DHT22;25998;46.604;13.610;2023-01-28T23:35:58;0.10;99.90
40287;DHT22;25998;46.604;13.610;2023-01-28T23:39:10;0.10;99.90
40287;DHT22;25998;46.604;13.610;2023-01-28T23:42:21;0.00;99.90
40287;DHT22;25998;46.604;13.610;2023-01-28T23:45:33;0.10;99.90
40287;DHT22;25998;46.604;13.610;2023-01-28T23:48:43;0.20;99.90
40287;DHT22;25998;46.604;13.610;2023-01-28T23:51:54;0.20;99.90
40287;DHT22;25998;46.604;13.610;2023-01-28T23:55:05;0.20;99.90
40287;DHT22;25998;46.604;13.610;2023-01-28T23:58:16;0.30;99.90
